logo
App data

Magma Tsunami

Magma Tsunami is a frenzied arcade platformer game. Beat your records in 1P or Co-op mode, and don't get caught by the Magma Tsunami!!! Could you stay alive for more than one minute??
Store | Hub | SteamDB | Site
Developer: StrangeLight Games Publisher: StrangeLight Games
Genre: Indie
Languages: English
Tags: Indie (131), Platformer (9), Runner (5)
Category: Single-player, Multi-player, Co-op, Shared/Split Screen, Steam Trading Cards, Partial Controller Support, Remote Play Together
Release date: Jun 1, 2016
Price: $0.99
Old userscore: 64% Owners: 200,000 .. 500,000
Followers: 184
Peak concurrent players yesterday: 2
Playtime total: 07:07 (average) 07:40 (median)

Steam Spy is still in beta, so expect major bugs.

Owners data:

Access restricted.

This feature is only available to users with special access rights. Sorry.

If you want to proceed, you need to register or log in first and then back Steam Spy on Patreon. Look for Indie or Pro pledge.

Don't forget to use the same email as on Steam Spy!

Audience in 2 weeks:

Access restricted.

This feature is only available to users with special access rights. Sorry.

If you want to proceed, you need to register or log in first and then back Steam Spy on Patreon. Look for Indie or Pro pledge.

Don't forget to use the same email as on Steam Spy!

Peak daily concurrent players:

CCU data courtesy of SteamDB. Used with permission.

Hourly concurrent players:

Followers over time

Access restricted.

This feature is only available to users with special access rights. Sorry.

If you want to proceed, you need to register or log in first and then back Steam Spy on Patreon. Look for Indie or Pro pledge.

Don't forget to use the same email as on Steam Spy!

Views for top 50 videos on YouTube for this game:

Games similar to this one:

# Game Release date
Price
Score rank
(Userscore / Metascore)
Owners
Players
Playtime (Median)
1 Hustle Cat Mar 16, 2016 $2.99N/A (N/A)50,000 .. 100,0000%00:00 (00:00)
2 Color Syndrome Jun 20, 2016 $0.99N/A (N/A)100,000 .. 200,0000%00:00 (00:00)
3 Burst Mar 14, 2016 N/AN/A (N/A)50,000 .. 100,0000%00:00 (00:00)
4 Totally Unbalanced Jul 29, 2016 FreeN/A (N/A)100,000 .. 200,00010%02:04 (00:41)
5 Forgotten, Not Lost - A Kinetic Novel Apr 2, 2016 $1.99N/A (N/A)20,000 .. 50,0000%00:00 (00:00)
6 ConflictCraft Dec 8, 2016 $0.49N/A (N/A)100,000 .. 200,0000%00:00 (00:00)
7 Melting Hearts: Our Love Will Grow 2 Apr 29, 2016 N/AN/A (N/A)20,000 .. 50,0000%00:00 (00:00)
8 Clock Simulator Jul 20, 2016 $0.49N/A (N/A)20,000 .. 50,0000%00:00 (00:00)
9 Love in the Glen Jun 9, 2016 $2.99N/A (N/A)20,000 .. 50,0000%00:00 (00:00)
10 Optika Aug 26, 2016 $0.74N/A (N/A)0 .. 20,0000%00:00 (00:00)
11 One Last Chance Apr 7, 2016 $1.99N/A (N/A)20,000 .. 50,0000%00:00 (00:00)
12 Night Blights Apr 15, 2016 $0.69N/A (N/A)0 .. 20,0000%00:00 (00:00)
13 Reptilian Rebellion Aug 8, 2016 $2.99N/A (N/A)50,000 .. 100,0000%00:00 (00:00)
14 XCavalypse Jun 6, 2016 $5.99N/A (N/A)0 .. 20,0000%00:00 (00:00)
15 Hyposphere May 5, 2016 $0.5N/A (N/A)200,000 .. 500,0000%00:00 (00:00)
16 Mind Games Mar 4, 2016 $1.79N/A (N/A)0 .. 20,0000%00:00 (00:00)
17 King's Guard TD Jun 8, 2016 $0.59N/A (N/A)200,000 .. 500,0000%00:00 (00:00)
18 Kombine Oct 14, 2016 $0.49N/A (N/A)0 .. 20,0000%00:00 (00:00)
19 GO AWAY, THERE'S KUMIS OVER THERE! Oct 28, 2016 $0.49N/A (N/A)50,000 .. 100,0000%00:00 (00:00)
20 Neon Prism Nov 18, 2016 $1.09N/A (N/A)50,000 .. 100,0000%00:00 (00:00)
21 iREC Jan 16, 2017 FreeN/A (N/A)50,000 .. 100,0000%00:00 (00:00)
22 Winexy Jan 13, 2017 $0.49N/A (N/A)50,000 .. 100,0000%00:00 (00:00)
23 Griptape Backbone May 5, 2017 FreeN/A (N/A)0 .. 20,0000%00:00 (00:00)
24 Football Blitz Jan 4, 2017 N/AN/A (N/A)0 .. 20,0000%00:00 (00:00)
25 Ninja Stealth 2 Jan 30, 2017 $0.49N/A (N/A)50,000 .. 100,0000%00:00 (00:00)
26 Turbo Pug 3D Sep 20, 2016 $0.99N/A (N/A)200,000 .. 500,0000%00:00 (00:00)
27 Dungeon Painter Studio Feb 26, 2017 $14.99N/A (N/A)50,000 .. 100,0000%00:00 (00:00)
28 Archimedes Oct 6, 2016 $0.79N/A (N/A)20,000 .. 50,0000%00:00 (00:00)
29 Bloop Reloaded Feb 6, 2015 FreeN/A (N/A)100,000 .. 200,0000%00:00 (00:00)
30 Dead Man's Draw Feb 6, 2014 $3.49N/A (N/A)50,000 .. 100,0000%00:00 (00:00)
31 A Good Snowman Is Hard To Build Feb 25, 2015 $2.99N/A (N/A)50,000 .. 100,0000%00:00 (00:00)
32 Girls Like Robots Feb 14, 2014 $5.24N/A (N/A)100,000 .. 200,0000%00:00 (00:00)
33 Quantum Rush Champions Dec 4, 2014 $2.99N/A (N/A)20,000 .. 50,0000%00:00 (00:00)
34 Paranormal State: Poison Spring Nov 26, 2013 $1.49N/A (N/A)50,000 .. 100,0000%00:00 (00:00)
35 Laserlife Sep 22, 2015 $3.99N/A (N/A)20,000 .. 50,0000%00:00 (00:00)
36 Tribloos 2 Jan 12, 2013 $2.49N/A (N/A)100,000 .. 200,0000%00:00 (00:00)
37 SinaRun Oct 26, 2015 $2.99N/A (N/A)20,000 .. 50,0000%00:00 (00:00)
38 On Rusty Trails Jun 13, 2016 $2.59N/A (N/A/77%)20,000 .. 50,0000%00:00 (00:00)
39 Sinister City Oct 18, 2014 $0.49N/A (N/A)100,000 .. 200,0000%00:00 (00:00)
40 Rage Runner May 16, 2014 $0.99N/A (N/A)0 .. 20,0000%00:00 (00:00)
41 Governor of Poker 2 - Premium Edition Oct 11, 2010 $14.99N/A (N/A)20,000 .. 50,0000%00:00 (00:00)
42 Cyto Jul 10, 2014 $3.99N/A (N/A)20,000 .. 50,0000%00:00 (00:00)
43 Luxor Evolved Mar 1, 2012 $3.99N/A (N/A)50,000 .. 100,0000%00:00 (00:00)
44 GamersGoMakers Aug 8, 2014 $8.99N/A (N/A)20,000 .. 50,0000%00:00 (00:00)
45 Oozi: Earth Adventure Dec 5, 2013 $0.49N/A (N/A/66%)20,000 .. 50,0000%00:00 (00:00)
46 12 Labours of Hercules Mar 23, 2015 $1.79N/A (N/A)100,000 .. 200,0000%00:00 (00:00)
47 Industry Transporters Aug 31, 2015 $9.99N/A (N/A)0 .. 20,0000%00:00 (00:00)
48 Bob Was Hungry Aug 19, 2015 $0.99N/A (N/A)50,000 .. 100,0000%00:00 (00:00)
49 Space Drifters 2D Mar 28, 2016 $0.99N/A (N/A)20,000 .. 50,0000%00:00 (00:00)
50 Pixel Puzzles 2: Birds Feb 20, 2015 $1.24N/A (N/A)200,000 .. 500,0000%00:00 (00:00)
51 Koala Kids Jun 22, 2015 $0.99N/A (N/A)20,000 .. 50,0000%00:00 (00:00)
52 Astro Emporia Feb 2, 2015 $0.49N/A (N/A)20,000 .. 50,0000%00:00 (00:00)
53 Star Chronicles: Delta Quadrant Jul 7, 2015 $0.49N/A (N/A)200,000 .. 500,0000%00:00 (00:00)
54 Streets of Chaos Jan 23, 2015 N/AN/A (N/A)100,000 .. 200,0000%00:00 (00:00)
55 Job the Leprechaun Jul 31, 2015 $0.74N/A (N/A)20,000 .. 50,0000%00:00 (00:00)
56 Racecraft Mar 4, 2016 FreeN/A (N/A)20,000 .. 50,0000%00:00 (00:00)
57 The Jackbox Party Pack Nov 26, 2014 $12.49N/A (N/A)200,000 .. 500,0000%00:00 (00:00)
58 Pester Jan 25, 2013 $0.49N/A (N/A)100,000 .. 200,0000%00:00 (00:00)
59 Steam and Metal Feb 9, 2015 $0.74N/A (N/A)0 .. 20,0000%00:00 (00:00)
60 The Reject Demon: Toko Chapter 0 — Prelude May 9, 2015 $4.99N/A (N/A)20,000 .. 50,0000%00:00 (00:00)
61 Marble Duel: Sphere-Matching Tactical Fantasy Nov 12, 2015 $4.49N/A (N/A)50,000 .. 100,0000%00:00 (00:00)
62 Power of Love Jul 21, 2015 $0.49N/A (N/A)20,000 .. 50,0000%00:00 (00:00)
63 Robot vs Birds Zombies Jun 1, 2013 $0.99N/A (N/A)500,000 .. 1,000,0000%00:00 (00:00)
64 Recursion Deluxe Feb 12, 2016 $1.24N/A (N/A)0 .. 20,0000%00:00 (00:00)
65 Collisions Jul 28, 2015 $3.99N/A (N/A)20,000 .. 50,0000%00:00 (00:00)
66 Goodnight Butcher Dec 18, 2015 $1.99N/A (N/A)20,000 .. 50,0000%00:00 (00:00)
67 The Deletion Jul 30, 2015 $0.49N/A (N/A)20,000 .. 50,0000%00:00 (00:00)
68 Zipple World Jan 19, 2016 $0.49N/A (N/A)0 .. 20,0000%00:00 (00:00)
69 12 Labours of Hercules IV: Mother Nature (Platinum Edition) Dec 25, 2015 $1.79N/A (N/A)20,000 .. 50,0000%00:00 (00:00)
70 Broken Dreams Feb 19, 2016 $0.49N/A (N/A)500,000 .. 1,000,0000%00:00 (00:00)
71 Lift It Jan 20, 2017 $0.49N/A (N/A)50,000 .. 100,0000%00:00 (00:00)
72 Sophie's Curse Mar 16, 2016 $2.49N/A (N/A)50,000 .. 100,0000%00:00 (00:00)
73 The Last NightMary - A Lenda do Cabeça de Cuia Nov 2, 2015 $3.99N/A (N/A)50,000 .. 100,0000%00:00 (00:00)
74 Wanda - A Beautiful Apocalypse Jun 3, 2016 $1.99N/A (N/A)100,000 .. 200,0000%00:00 (00:00)
75 Cyber Team Manager Jan 8, 2016 $4.99N/A (N/A)0 .. 20,0000%00:00 (00:00)
76 Alpha Runner Sep 2, 2015 $0.99N/A (N/A)100,000 .. 200,0000%00:00 (00:00)
77 Rescue Team 5 Sep 30, 2015 $1.99N/A (N/A)0 .. 20,0000%00:00 (00:00)
78 In Between Aug 21, 2015 $2.99N/A (N/A/68%)50,000 .. 100,0000%00:00 (00:00)
79 Air Missions: HIND Mar 21, 2016 $6.79N/A (N/A)20,000 .. 50,0000%00:00 (00:00)

Geography of active players over time, share:

Access restricted.

This feature is only available to users with special access rights. Sorry.

If you want to proceed, you need to register or log in first and then back Steam Spy on Patreon. Look for Indie or Pro pledge.

Don't forget to use the same email as on Steam Spy!

Tags over time:

Access restricted.

This feature is only available to users with special access rights. Sorry.

If you want to proceed, you need to register or log in first and then back Steam Spy on Patreon. Look for Indie or Pro pledge.

Don't forget to use the same email as on Steam Spy!

Owners of this game also own:

Access restricted.

This feature is only available to users with special access rights. Sorry.

If you want to proceed, you need to register or log in first and then back Steam Spy on Patreon. Look for Indie or Pro pledge.

Don't forget to use the same email as on Steam Spy!

Playtime distribution:

Access restricted.

This feature is only available to users with special access rights. Sorry.

If you want to proceed, you need to register or log in first and then back Steam Spy on Patreon. Look for Indie or Pro pledge.

Don't forget to use the same email as on Steam Spy!

Playtime (2 weeks):

Access restricted.

This feature is only available to users with special access rights. Sorry.

If you want to proceed, you need to register or log in first and then back Steam Spy on Patreon. Look for Indie or Pro pledge.

Don't forget to use the same email as on Steam Spy!

User reviews:

Login required.

Please register or log in to see this information.